createdAt,value
2022-12-03T00:00:13.579Z,25.08
2022-12-03T00:03:01.520Z,25.98
2022-12-03T00:05:31.090Z,28.58
2022-12-03T00:08:00.153Z,27.55
2022-12-03T00:10:31.972Z,27.85
2022-12-03T00:13:16.064Z,27.98
2022-12-03T00:15:54.535Z,27.80
2022-12-03T00:18:36.098Z,31.13
2022-12-03T00:21:14.382Z,24.98
2022-12-03T00:23:43.150Z,25.00
2022-12-03T00:26:12.607Z,22.90
2022-12-03T00:28:44.589Z,23.75
2022-12-03T00:31:13.737Z,24.13
2022-12-03T00:33:44.586Z,26.20
2022-12-03T00:36:21.347Z,26.55
2022-12-03T00:39:03.321Z,26.08
2022-12-03T00:41:46.999Z,25.08
2022-12-03T00:44:28.163Z,25.42
2022-12-03T00:47:07.819Z,27.85
2022-12-03T00:49:53.829Z,27.92
2022-12-03T00:52:34.254Z,27.25
2022-12-03T00:55:06.488Z,26.48
2022-12-03T00:57:37.735Z,27.65
2022-12-03T01:00:07.179Z,25.65
2022-12-03T01:02:44.450Z,24.35
2022-12-03T01:05:13.005Z,27.35
2022-12-03T01:07:47.058Z,28.52
2022-12-03T01:10:15.909Z,29.48
2022-12-03T01:12:49.672Z,28.63
2022-12-03T01:15:30.322Z,28.50
2022-12-03T01:18:05.620Z,25.98
2022-12-03T01:20:38.787Z,29.90
2022-12-03T01:23:07.308Z,29.73
2022-12-03T01:25:45.808Z,29.08
2022-12-03T01:31:24.082Z,28.77
2022-12-03T01:33:58.077Z,22.80
2022-12-03T01:36:26.931Z,29.60
2022-12-03T01:39:05.233Z,29.55
2022-12-03T01:41:50.284Z,26.92
2022-12-03T01:44:31.601Z,31.58
2022-12-03T01:49:44.782Z,27.70
2022-12-03T01:52:18.263Z,27.13
2022-12-03T01:54:51.531Z,31.25
2022-12-03T01:57:20.767Z,33.47
2022-12-03T01:59:52.729Z,27.27
2022-12-03T02:02:25.331Z,29.52
2022-12-03T02:04:54.979Z,26.75
2022-12-03T02:07:28.515Z,28.15
2022-12-03T02:09:58.660Z,30.38
2022-12-03T02:12:35.354Z,27.83
2022-12-03T02:15:07.407Z,26.05
2022-12-03T02:17:55.266Z,29.40
2022-12-03T02:20:25.653Z,30.95
2022-12-03T02:23:03.503Z,31.52
2022-12-03T02:25:33.188Z,24.33
2022-12-03T02:28:09.697Z,27.23
2022-12-03T02:30:40.106Z,31.67
2022-12-03T02:33:20.684Z,30.33
2022-12-03T02:36:03.555Z,30.20
2022-12-03T02:38:34.917Z,26.83
2022-12-03T02:41:10.346Z,35.65
2022-12-03T02:43:41.270Z,31.63
2022-12-03T02:46:12.065Z,30.83
2022-12-03T02:48:42.728Z,30.40
2022-12-03T02:51:12.036Z,34.88
2022-12-03T02:53:45.187Z,28.70
2022-12-03T02:56:19.389Z,29.67
2022-12-03T02:58:51.630Z,35.28
2022-12-03T03:01:20.496Z,35.28
2022-12-03T03:03:50.494Z,35.03
2022-12-03T03:06:19.633Z,31.70
2022-12-03T03:08:47.916Z,33.83
2022-12-03T03:11:36.952Z,34.08
2022-12-03T03:14:21.969Z,31.48
2022-12-03T03:17:06.483Z,33.55
2022-12-03T03:19:49.133Z,31.80
2022-12-03T03:22:20.306Z,33.65
2022-12-03T03:24:49.264Z,33.80
2022-12-03T03:27:18.252Z,33.83
2022-12-03T03:29:46.662Z,40.90
2022-12-03T03:32:15.053Z,34.80
2022-12-03T03:34:56.577Z,34.45
2022-12-03T03:37:37.161Z,37.22
2022-12-03T03:40:25.288Z,36.05
2022-12-03T03:43:14.840Z,38.38
2022-12-03T03:45:54.570Z,40.50
2022-12-03T03:48:44.710Z,33.03
2022-12-03T03:51:24.347Z,37.90
2022-12-03T03:54:02.552Z,40.28
2022-12-03T03:56:34.868Z,33.83
2022-12-03T03:59:08.742Z,37.20
2022-12-03T04:01:38.248Z,34.25
2022-12-03T04:04:17.998Z,37.22
2022-12-03T04:06:47.228Z,34.17
2022-12-03T04:09:15.910Z,36.47
2022-12-03T04:12:04.168Z,37.58
2022-12-03T04:14:33.016Z,40.80
2022-12-03T04:17:08.734Z,35.78
2022-12-03T04:19:51.560Z,36.38
2022-12-03T04:22:50.764Z,35.55
2022-12-03T04:25:47.767Z,36.72
2022-12-03T04:28:34.750Z,29.20
2022-12-03T04:31:23.599Z,35.20
2022-12-03T04:34:09.297Z,38.88
2022-12-03T04:36:37.872Z,41.58
2022-12-03T04:39:08.989Z,34.55
2022-12-03T04:41:37.779Z,39.22
2022-12-03T04:44:25.985Z,36.85
2022-12-03T04:46:54.583Z,40.53
2022-12-03T04:49:23.787Z,38.20
2022-12-03T04:51:52.544Z,38.92
2022-12-03T04:54:23.737Z,37.60
2022-12-03T04:56:52.122Z,34.50
2022-12-03T04:59:20.814Z,36.33
2022-12-03T05:02:06.021Z,32.63
2022-12-03T05:04:56.581Z,41.97
2022-12-03T05:07:41.035Z,37.17
2022-12-03T05:10:23.689Z,39.83
2022-12-03T05:13:05.139Z,38.45
2022-12-03T05:15:52.686Z,38.17
2022-12-03T05:18:39.482Z,42.70
2022-12-03T05:21:18.867Z,47.78
2022-12-03T05:23:48.061Z,34.20
2022-12-03T05:26:16.636Z,40.85
2022-12-03T05:28:45.540Z,37.38
2022-12-03T05:31:14.500Z,47.03
2022-12-03T05:33:44.729Z,40.08
2022-12-03T05:36:31.651Z,45.90
2022-12-03T05:39:13.497Z,41.05
2022-12-03T05:42:13.932Z,36.70
2022-12-03T05:44:56.905Z,45.15
2022-12-03T05:47:42.482Z,43.65
2022-12-03T05:50:18.779Z,50.83
2022-12-03T05:53:06.652Z,48.40
2022-12-03T05:55:53.871Z,50.15
2022-12-03T05:58:23.283Z,40.95
2022-12-03T06:00:53.780Z,41.53
2022-12-03T06:03:33.788Z,49.75
2022-12-03T06:06:02.803Z,44.03
2022-12-03T06:08:32.015Z,41.70
2022-12-03T06:11:04.157Z,45.72
2022-12-03T06:13:32.847Z,40.83
2022-12-03T06:16:02.139Z,38.00
2022-12-03T06:18:32.807Z,45.70
2022-12-03T06:21:08.032Z,41.28
2022-12-03T06:23:53.385Z,39.63
2022-12-03T06:26:40.870Z,46.45
2022-12-03T06:29:32.387Z,46.08
2022-12-03T06:32:01.200Z,43.53
2022-12-03T06:34:30.111Z,48.30
2022-12-03T06:36:59.311Z,40.95
2022-12-03T06:39:27.766Z,47.33
2022-12-03T06:41:56.719Z,44.97
2022-12-03T06:44:26.248Z,42.58
2022-12-03T06:46:59.790Z,38.78
2022-12-03T06:49:33.281Z,42.45
2022-12-03T06:52:04.522Z,38.58
2022-12-03T06:54:43.277Z,41.83
2022-12-03T06:57:22.633Z,39.55
2022-12-03T07:00:03.416Z,38.35
2022-12-03T07:02:51.072Z,42.53
2022-12-03T07:05:20.030Z,37.42
2022-12-03T07:08:01.534Z,43.95
2022-12-03T07:10:49.186Z,42.13
2022-12-03T07:13:37.090Z,41.35
2022-12-03T07:16:05.671Z,46.17
2022-12-03T07:18:34.986Z,42.53
2022-12-03T07:21:03.674Z,45.80
2022-12-03T07:23:36.116Z,43.45
2022-12-03T07:26:05.828Z,40.42
2022-12-03T07:28:34.594Z,43.47
2022-12-03T07:31:14.396Z,43.30
2022-12-03T07:33:51.206Z,39.13
2022-12-03T07:36:30.929Z,43.45
2022-12-03T07:39:13.547Z,36.70
2022-12-03T07:41:51.909Z,36.72
2022-12-03T07:44:28.187Z,41.42
2022-12-03T07:47:11.072Z,47.10
2022-12-03T07:49:52.236Z,34.72
2022-12-03T07:52:27.043Z,38.35
2022-12-03T07:55:07.190Z,37.80
2022-12-03T07:57:42.818Z,42.28
2022-12-03T08:00:11.944Z,37.40
2022-12-03T08:02:55.190Z,41.47
2022-12-03T08:05:23.519Z,36.72
2022-12-03T08:07:57.724Z,40.13
2022-12-03T08:10:26.632Z,39.30
2022-12-03T08:12:55.457Z,44.92
2022-12-03T08:15:25.623Z,36.78
2022-12-03T08:17:58.680Z,35.50
2022-12-03T08:20:33.213Z,33.83
2022-12-03T08:23:07.665Z,42.53
2022-12-03T08:25:41.843Z,41.75
2022-12-03T08:28:14.008Z,34.70
2022-12-03T08:30:44.151Z,32.85
2022-12-03T08:33:28.969Z,48.05
2022-12-03T08:36:01.696Z,42.42
2022-12-03T08:38:32.926Z,40.08
2022-12-03T08:41:08.962Z,38.65
2022-12-03T08:43:42.782Z,46.08
2022-12-03T08:46:17.140Z,36.92
2022-12-03T08:48:49.131Z,45.55
2022-12-03T08:51:20.584Z,40.97
2022-12-03T08:53:58.166Z,43.75
2022-12-03T08:56:34.253Z,42.15
2022-12-03T08:59:08.514Z,47.63
2022-12-03T09:01:40.289Z,34.75
2022-12-03T09:04:29.314Z,36.75
2022-12-03T09:06:57.982Z,43.38
2022-12-03T09:09:30.192Z,42.25
2022-12-03T09:11:58.461Z,37.00
2022-12-03T09:14:31.371Z,36.15
2022-12-03T09:17:00.071Z,43.00
2022-12-03T09:19:32.972Z,43.35
2022-12-03T09:22:01.365Z,40.25
2022-12-03T09:24:33.247Z,39.75
2022-12-03T09:27:05.308Z,37.85
2022-12-03T09:29:46.416Z,40.50
2022-12-03T09:32:27.312Z,38.63
2022-12-03T09:34:58.531Z,31.33
2022-12-03T09:37:37.325Z,37.42
2022-12-03T09:40:14.445Z,36.15
2022-12-03T09:42:59.466Z,42.25
2022-12-03T09:45:46.994Z,45.58
2022-12-03T09:48:34.631Z,45.70
2022-12-03T09:51:22.686Z,40.08
2022-12-03T09:56:56.714Z,41.22
2022-12-03T09:59:36.776Z,48.22
2022-12-03T10:02:25.953Z,51.15
2022-12-03T10:05:14.061Z,44.45
2022-12-03T10:07:45.008Z,40.33
2022-12-03T10:10:21.944Z,43.80
2022-12-03T10:12:53.374Z,46.55
2022-12-03T10:15:23.816Z,48.72
2022-12-03T10:18:17.337Z,41.03
2022-12-03T10:21:14.004Z,46.17
2022-12-03T10:24:19.016Z,42.60
2022-12-03T10:27:03.191Z,43.78
2022-12-03T10:29:34.250Z,47.00
2022-12-03T10:32:11.841Z,40.55
2022-12-03T10:35:06.681Z,39.50
2022-12-03T10:37:59.136Z,41.72
2022-12-03T10:40:38.024Z,39.22
2022-12-03T10:43:25.492Z,41.75
2022-12-03T10:46:03.841Z,46.45
2022-12-03T10:48:35.508Z,42.30
2022-12-03T10:51:07.012Z,38.78
2022-12-03T10:53:53.207Z,41.45
2022-12-03T10:56:36.984Z,44.58
2022-12-03T10:59:24.477Z,45.80
2022-12-03T11:02:03.893Z,46.75
2022-12-03T11:04:49.434Z,45.58
2022-12-03T11:07:20.106Z,44.08
2022-12-03T11:09:58.885Z,46.00
2022-12-03T11:13:03.269Z,40.50
2022-12-03T11:15:45.383Z,44.55
2022-12-03T11:18:37.565Z,42.20
2022-12-03T11:21:09.037Z,37.38
2022-12-03T11:23:46.640Z,48.28
2022-12-03T11:26:19.985Z,42.35
2022-12-03T11:28:48.089Z,48.85
2022-12-03T11:31:35.620Z,42.28
2022-12-03T11:34:21.862Z,45.75
2022-12-03T11:39:45.863Z,40.75
2022-12-03T11:42:25.318Z,37.22
2022-12-03T11:45:05.894Z,39.65
2022-12-03T11:47:46.556Z,41.97
2022-12-03T11:50:21.891Z,50.85
2022-12-03T11:53:09.005Z,42.42
2022-12-03T11:56:05.965Z,44.45
2022-12-03T11:59:00.585Z,45.25
2022-12-03T12:01:46.162Z,37.05
2022-12-03T12:06:56.275Z,44.00
2022-12-03T12:09:43.757Z,42.53
2022-12-03T12:12:18.823Z,43.55
2022-12-03T12:14:47.338Z,38.45
2022-12-03T12:17:31.779Z,47.42
2022-12-03T12:20:20.612Z,40.55
2022-12-03T12:22:48.780Z,42.72
2022-12-03T12:25:34.944Z,47.08
2022-12-03T12:28:03.351Z,43.90
2022-12-03T12:30:32.075Z,69.88
2022-12-03T12:33:08.431Z,46.55
2022-12-03T12:35:37.053Z,44.78
2022-12-03T12:38:19.390Z,46.25
2022-12-03T12:41:07.866Z,42.72
2022-12-03T12:43:52.705Z,50.78
2022-12-03T12:46:49.425Z,47.10
2022-12-03T12:49:21.583Z,45.65
2022-12-03T12:51:52.557Z,49.15
2022-12-03T12:54:28.047Z,47.55
2022-12-03T12:56:57.775Z,44.63
2022-12-03T12:59:29.073Z,48.25
2022-12-03T13:02:38.530Z,40.30
2022-12-03T13:05:28.007Z,41.60
2022-12-03T13:08:24.103Z,47.78
2022-12-03T13:10:53.871Z,42.42
2022-12-03T13:13:44.507Z,45.58
2022-12-03T13:16:32.324Z,45.00
2022-12-03T13:19:25.009Z,47.08
2022-12-03T13:22:25.501Z,43.95
2022-12-03T13:25:50.509Z,50.75
2022-12-03T13:28:33.767Z,45.60
2022-12-03T13:31:21.514Z,47.83
2022-12-03T13:33:50.457Z,39.20
2022-12-03T13:36:21.001Z,41.22
2022-12-03T13:38:50.031Z,51.08
2022-12-03T13:41:40.935Z,48.95
2022-12-03T13:44:17.743Z,41.03
2022-12-03T13:46:46.634Z,43.22
2022-12-03T13:49:21.021Z,40.08
2022-12-03T13:54:22.525Z,40.35
2022-12-03T13:56:51.207Z,44.58
2022-12-03T13:59:25.772Z,48.15
2022-12-03T14:01:57.520Z,44.80
2022-12-03T14:04:45.175Z,45.03
2022-12-03T14:07:14.075Z,45.42
2022-12-03T14:09:45.768Z,45.58
2022-12-03T14:12:33.929Z,49.78
2022-12-03T14:15:05.484Z,46.00
2022-12-03T14:17:38.625Z,46.72
2022-12-03T14:20:07.991Z,43.60
2022-12-03T14:22:59.495Z,39.95
2022-12-03T14:25:52.999Z,45.35
2022-12-03T14:28:40.679Z,44.58
2022-12-03T14:31:30.801Z,44.42
2022-12-03T14:34:18.408Z,46.15
2022-12-03T14:36:48.713Z,49.03
2022-12-03T14:39:25.423Z,52.13
2022-12-03T14:42:15.522Z,46.13
2022-12-03T14:44:50.036Z,41.53
2022-12-03T14:47:20.249Z,50.17
2022-12-03T14:49:48.589Z,49.72
2022-12-03T14:52:17.160Z,43.78
2022-12-03T14:54:49.482Z,53.88
2022-12-03T14:57:22.398Z,48.35
2022-12-03T14:59:56.780Z,50.67
2022-12-03T15:02:31.953Z,44.75
2022-12-03T15:05:00.452Z,44.53
2022-12-03T15:07:29.979Z,46.50
2022-12-03T15:09:59.421Z,48.95
2022-12-03T15:12:29.897Z,54.17
2022-12-03T15:14:58.392Z,43.60
2022-12-03T15:17:36.656Z,45.33
2022-12-03T15:20:08.851Z,45.83
2022-12-03T15:22:50.728Z,41.70
2022-12-03T15:25:24.396Z,42.50
2022-12-03T15:27:54.761Z,45.65
2022-12-03T15:30:42.434Z,46.08
2022-12-03T15:33:30.091Z,42.70
2022-12-03T15:36:17.690Z,46.55
2022-12-03T15:39:05.403Z,44.05
2022-12-03T15:41:39.280Z,53.28
2022-12-03T15:44:07.751Z,49.20
2022-12-03T15:46:36.560Z,45.80
2022-12-03T15:49:04.921Z,42.38
2022-12-03T15:51:36.832Z,43.35
2022-12-03T15:54:09.446Z,42.22
2022-12-03T15:56:40.008Z,49.53
2022-12-03T15:59:08.502Z,53.72
2022-12-03T16:01:37.805Z,37.00
2022-12-03T16:04:06.822Z,44.65
2022-12-03T16:06:54.580Z,43.88
2022-12-03T16:09:42.168Z,51.58
2022-12-03T16:12:30.941Z,39.63
2022-12-03T16:15:35.795Z,45.97
2022-12-03T16:18:15.871Z,47.60
2022-12-03T16:21:06.075Z,50.08
2022-12-03T16:23:53.848Z,49.75
2022-12-03T16:26:41.634Z,45.08
2022-12-03T16:29:10.530Z,45.38
2022-12-03T16:31:41.457Z,52.58
2022-12-03T16:34:11.371Z,50.15
2022-12-03T16:36:48.102Z,45.55
2022-12-03T16:39:20.595Z,43.30
2022-12-03T16:42:10.440Z,49.92
2022-12-03T16:45:33.464Z,45.05
2022-12-03T16:48:20.233Z,39.00
2022-12-03T16:51:08.036Z,44.03
2022-12-03T16:53:55.756Z,45.80
2022-12-03T16:56:43.422Z,44.38
2022-12-03T16:59:30.748Z,45.35
2022-12-03T17:02:18.444Z,48.28
2022-12-03T17:05:08.617Z,45.50
2022-12-03T17:07:56.320Z,51.67
2022-12-03T17:10:44.456Z,45.70
2022-12-03T17:13:14.285Z,40.88
2022-12-03T17:16:02.180Z,44.70
2022-12-03T17:18:52.064Z,41.85
2022-12-03T17:21:39.648Z,49.20
2022-12-03T17:24:26.436Z,39.67
2022-12-03T17:27:11.560Z,40.10
2022-12-03T17:29:55.740Z,43.67
2022-12-03T17:32:43.047Z,41.47
2022-12-03T17:35:29.802Z,48.92
2022-12-03T17:38:18.830Z,51.38
2022-12-03T17:41:07.304Z,46.80
2022-12-03T17:43:54.931Z,38.75
2022-12-03T17:46:42.915Z,41.90
2022-12-03T17:49:31.659Z,42.60
2022-12-03T17:52:15.050Z,39.75
2022-12-03T17:55:27.825Z,42.50
2022-12-03T17:58:08.792Z,44.08
2022-12-03T18:01:03.137Z,41.10
2022-12-03T18:03:50.960Z,41.05
2022-12-03T18:06:38.895Z,45.78
2022-12-03T18:09:23.201Z,48.95
2022-12-03T18:11:54.298Z,42.50
2022-12-03T18:14:27.126Z,39.13
2022-12-03T18:16:58.094Z,40.83
2022-12-03T18:19:27.844Z,42.08
2022-12-03T18:22:15.837Z,44.25
2022-12-03T18:25:03.727Z,41.75
2022-12-03T18:27:51.545Z,39.90
2022-12-03T18:30:39.121Z,38.25
2022-12-03T18:33:29.145Z,42.25
2022-12-03T18:36:22.309Z,45.85
2022-12-03T18:39:15.853Z,43.85
2022-12-03T18:42:07.554Z,45.30
2022-12-03T18:44:57.934Z,38.05
2022-12-03T18:47:45.676Z,40.78
2022-12-03T18:50:23.637Z,40.85
2022-12-03T18:52:58.978Z,44.72
2022-12-03T18:55:37.239Z,40.53
2022-12-03T18:58:08.911Z,42.80
2022-12-03T19:00:38.473Z,38.72
2022-12-03T19:03:24.598Z,42.25
2022-12-03T19:05:56.084Z,37.75
2022-12-03T19:08:24.606Z,38.15
2022-12-03T19:11:00.588Z,36.22
2022-12-03T19:13:48.778Z,43.08
2022-12-03T19:16:39.631Z,36.78
2022-12-03T19:19:27.287Z,40.92
2022-12-03T19:22:12.939Z,40.83
2022-12-03T19:25:00.521Z,40.88
2022-12-03T19:27:50.073Z,40.42
2022-12-03T19:30:37.751Z,39.20
2022-12-03T19:33:28.658Z,42.75
2022-12-03T19:36:23.722Z,39.97
2022-12-03T19:39:09.342Z,36.97
2022-12-03T19:42:01.722Z,40.35
2022-12-03T19:44:41.859Z,37.58
2022-12-03T19:47:29.676Z,42.70
2022-12-03T19:49:59.183Z,41.65
2022-12-03T19:52:27.930Z,41.05
2022-12-03T19:54:57.063Z,40.17
2022-12-03T19:57:47.547Z,42.65
2022-12-03T20:00:18.086Z,40.15
2022-12-03T20:03:08.738Z,36.67
2022-12-03T20:05:41.628Z,43.65
2022-12-03T20:08:29.354Z,47.60
2022-12-03T20:11:19.113Z,43.03
2022-12-03T20:14:10.077Z,43.67
2022-12-03T20:16:57.732Z,45.00
2022-12-03T20:19:26.431Z,44.38
2022-12-03T20:22:02.070Z,43.00
2022-12-03T20:24:33.416Z,40.55
2022-12-03T20:27:09.572Z,38.30
2022-12-03T20:29:57.614Z,43.78
2022-12-03T20:32:46.337Z,41.85
2022-12-03T20:35:34.473Z,40.35
2022-12-03T20:38:26.323Z,43.63
2022-12-03T20:41:01.463Z,44.00
2022-12-03T20:43:32.169Z,47.78
2022-12-03T20:46:11.633Z,43.72
2022-12-03T20:48:45.299Z,47.28
2022-12-03T20:51:16.367Z,47.03
2022-12-03T20:53:49.171Z,40.90
2022-12-03T20:56:20.645Z,49.93
2022-12-03T20:58:51.534Z,46.80
2022-12-03T21:01:21.747Z,53.33
2022-12-03T21:04:10.663Z,47.22
2022-12-03T21:06:55.041Z,47.78
2022-12-03T21:09:47.054Z,45.58
2022-12-03T21:12:19.566Z,51.92
2022-12-03T21:14:50.845Z,47.88
2022-12-03T21:17:21.330Z,45.88
2022-12-03T21:19:52.781Z,48.47
2022-12-03T21:22:21.872Z,51.17
2022-12-03T21:24:51.161Z,48.20
2022-12-03T21:27:21.995Z,46.95
2022-12-03T21:29:51.063Z,50.58
2022-12-03T21:32:20.068Z,53.05
2022-12-03T21:35:10.380Z,52.97
2022-12-03T21:37:58.178Z,44.13
2022-12-03T21:40:46.670Z,50.78
2022-12-03T21:43:34.043Z,45.38
2022-12-03T21:47:10.775Z,39.55
2022-12-03T21:49:30.212Z,39.63
2022-12-03T21:52:18.243Z,62.35
2022-12-03T21:55:08.586Z,49.33
2022-12-03T21:57:39.353Z,47.70
2022-12-03T22:00:27.195Z,51.22
2022-12-03T22:03:15.294Z,51.60
2022-12-03T22:06:03.225Z,54.28
2022-12-03T22:08:56.473Z,56.85
2022-12-03T22:11:46.833Z,54.58
2022-12-03T22:14:37.408Z,52.22
2022-12-03T22:17:22.106Z,54.53
2022-12-03T22:20:09.288Z,51.50
2022-12-03T22:22:57.164Z,53.63
2022-12-03T22:25:48.265Z,53.80
2022-12-03T22:28:30.918Z,61.50
2022-12-03T22:30:59.820Z,49.75
2022-12-03T22:33:43.594Z,54.50
2022-12-03T22:36:19.923Z,64.40
2022-12-03T22:38:49.404Z,65.95
2022-12-03T22:41:37.154Z,50.60
2022-12-03T22:44:24.877Z,69.70
2022-12-03T22:47:03.577Z,52.15
2022-12-03T22:49:50.677Z,55.80
2022-12-03T22:52:21.955Z,59.35
2022-12-03T22:54:52.072Z,55.10
2022-12-03T22:57:23.710Z,57.30
2022-12-03T22:59:52.661Z,56.72
2022-12-03T23:02:22.789Z,60.00
2022-12-03T23:05:10.456Z,56.58
2022-12-03T23:07:58.187Z,57.08
2022-12-03T23:10:49.081Z,58.38
2022-12-03T23:13:40.213Z,56.60
2022-12-03T23:16:13.786Z,57.72
2022-12-03T23:18:45.115Z,58.50
2022-12-03T23:21:17.050Z,55.55
2022-12-03T23:23:48.428Z,53.60
2022-12-03T23:26:17.166Z,51.60
2022-12-03T23:28:48.241Z,54.15
2022-12-03T23:31:27.362Z,54.58
2022-12-03T23:33:56.557Z,62.78
2022-12-03T23:36:28.016Z,56.67
2022-12-03T23:38:57.340Z,56.03
2022-12-03T23:41:26.021Z,52.90
2022-12-03T23:43:55.888Z,58.25
2022-12-03T23:46:25.779Z,59.58
2022-12-03T23:49:10.454Z,49.20
2022-12-03T23:51:58.168Z,56.65
2022-12-03T23:54:46.750Z,60.13
2022-12-03T23:57:35.283Z,50.00
